createdAt,value
2019-01-20T00:02:27.203Z,-12.34
2019-01-20T00:05:34.107Z,-12.24
2019-01-20T00:08:41.032Z,-12.23
2019-01-20T00:11:47.640Z,-12.25
2019-01-20T00:14:54.171Z,-12.38
2019-01-20T00:18:01.179Z,-12.28
2019-01-20T00:21:07.732Z,-12.32
2019-01-20T00:24:14.203Z,-12.44
2019-01-20T00:27:20.693Z,-12.39
2019-01-20T00:30:28.270Z,-12.43
2019-01-20T00:36:54.066Z,-12.58
2019-01-20T00:40:00.646Z,-12.41
2019-01-20T00:43:07.388Z,-12.61
2019-01-20T00:46:13.709Z,-12.56
2019-01-20T00:49:20.338Z,-12.53
2019-01-20T00:52:26.524Z,-12.51
2019-01-20T00:55:34.706Z,-12.61
2019-01-20T00:58:41.565Z,-12.56
2019-01-20T01:01:48.212Z,-12.44
2019-01-20T01:04:54.912Z,-12.51
2019-01-20T01:08:01.498Z,-12.38
2019-01-20T01:11:07.866Z,-12.51
2019-01-20T01:14:14.930Z,-12.62
2019-01-20T01:17:21.565Z,-12.63
2019-01-20T01:20:27.869Z,-12.67
2019-01-20T01:23:34.245Z,-12.60
2019-01-20T01:26:40.746Z,-12.59
2019-01-20T01:29:47.517Z,-12.61
2019-01-20T01:32:54.045Z,-12.60
2019-01-20T01:36:00.451Z,-12.64
2019-01-20T01:39:09.998Z,-12.73
2019-01-20T01:42:17.398Z,-12.82
2019-01-20T01:45:23.886Z,-12.89
2019-01-20T01:48:30.197Z,-12.92
2019-01-20T01:51:37.812Z,-12.77
2019-01-20T01:54:43.973Z,-12.72
2019-01-20T01:57:50.478Z,-12.85
2019-01-20T02:00:56.984Z,-12.72
2019-01-20T02:04:03.971Z,-12.68
2019-01-20T02:07:10.660Z,-12.67
2019-01-20T02:10:22.328Z,-12.76
2019-01-20T02:13:28.922Z,-12.87
2019-01-20T02:16:36.169Z,-12.97
2019-01-20T02:19:42.744Z,-12.89
2019-01-20T02:22:51.246Z,-12.76
2019-01-20T02:25:57.553Z,-12.86
2019-01-20T02:29:04.256Z,-12.92
2019-01-20T02:32:10.741Z,-12.94
2019-01-20T02:35:17.244Z,-12.81
2019-01-20T02:38:24.955Z,-12.90
2019-01-20T02:41:31.364Z,-12.94
2019-01-20T02:44:37.998Z,-12.94
2019-01-20T02:47:44.951Z,-12.77
2019-01-20T02:50:51.252Z,-12.89
2019-01-20T02:53:57.993Z,-12.84
2019-01-20T02:57:04.553Z,-12.89
2019-01-20T03:00:15.706Z,-12.93
2019-01-20T03:03:22.315Z,-12.82
2019-01-20T03:09:10.128Z,-12.84
2019-01-20T03:12:17.050Z,-12.86
2019-01-20T03:15:23.881Z,-12.87
2019-01-20T03:18:30.193Z,-13.02
2019-01-20T03:21:37.145Z,-12.98
2019-01-20T03:24:44.093Z,-12.99
2019-01-20T03:27:50.837Z,-12.96
2019-01-20T03:30:57.237Z,-12.88
2019-01-20T03:34:04.029Z,-12.81
2019-01-20T03:37:10.335Z,-12.81
2019-01-20T03:40:17.546Z,-12.80
2019-01-20T03:43:24.160Z,-12.80
2019-01-20T03:46:30.489Z,-12.77
2019-01-20T03:49:37.232Z,-12.80
2019-01-20T03:52:43.711Z,-12.89
2019-01-20T03:55:50.577Z,-12.99
2019-01-20T03:58:57.113Z,-13.09
2019-01-20T04:02:03.838Z,-13.14
2019-01-20T04:05:10.562Z,-13.29
2019-01-20T04:08:16.974Z,-13.33
2019-01-20T04:11:23.798Z,-13.11
2019-01-20T04:14:30.228Z,-13.21
2019-01-20T04:17:36.560Z,-13.25
2019-01-20T04:20:43.174Z,-13.24
2019-01-20T04:23:50.226Z,-13.14
2019-01-20T04:26:56.722Z,-13.02
2019-01-20T04:30:03.552Z,-13.06
2019-01-20T04:33:10.105Z,-13.23
2019-01-20T04:36:16.351Z,-13.24
2019-01-20T04:39:23.474Z,-13.18
2019-01-20T04:42:29.791Z,-13.22
2019-01-20T04:45:36.461Z,-13.34
2019-01-20T04:48:42.695Z,-13.33
2019-01-20T04:51:49.613Z,-13.25
2019-01-20T04:54:56.442Z,-13.30
2019-01-20T04:58:02.965Z,-13.40
2019-01-20T05:01:09.590Z,-13.48
2019-01-20T05:04:16.339Z,-13.33
2019-01-20T05:07:22.743Z,-13.43
2019-01-20T05:10:29.508Z,-13.38
2019-01-20T05:13:36.952Z,-13.42
2019-01-20T05:16:43.427Z,-13.34
2019-01-20T05:19:49.790Z,-13.33
2019-01-20T05:22:56.668Z,-13.28
2019-01-20T05:26:03.461Z,-13.21
2019-01-20T05:29:10.358Z,-13.41
2019-01-20T05:32:16.707Z,-13.32
2019-01-20T05:35:23.752Z,-13.40
2019-01-20T05:38:30.076Z,-13.51
2019-01-20T05:41:37.471Z,-13.46
2019-01-20T05:44:44.026Z,-13.46
2019-01-20T05:47:50.534Z,-13.51
2019-01-20T05:50:57.431Z,-13.54
2019-01-20T05:54:03.813Z,-13.51
2019-01-20T05:57:10.299Z,-13.48
2019-01-20T06:00:22.281Z,-13.64
2019-01-20T06:03:29.018Z,-13.61
2019-01-20T06:06:35.975Z,-13.58
2019-01-20T06:09:42.641Z,-13.75
2019-01-20T06:12:53.893Z,-13.68
2019-01-20T06:15:58.065Z,-13.74
2019-01-20T06:19:04.528Z,-13.84
2019-01-20T06:22:11.433Z,-13.88
2019-01-20T06:25:17.890Z,-13.92
2019-01-20T06:28:24.568Z,-13.80
2019-01-20T06:31:31.118Z,-13.82
2019-01-20T06:34:37.623Z,-13.83
2019-01-20T06:37:44.339Z,-13.91
2019-01-20T06:40:51.112Z,-14.05
2019-01-20T06:43:57.866Z,-14.12
2019-01-20T06:47:04.350Z,-14.07
2019-01-20T06:50:12.853Z,-14.11
2019-01-20T06:53:19.386Z,-14.04
2019-01-20T06:56:26.023Z,-14.00
2019-01-20T06:59:32.568Z,-13.94
2019-01-20T07:02:39.217Z,-13.96
2019-01-20T07:05:46.010Z,-13.80
2019-01-20T07:08:52.958Z,-13.83
2019-01-20T07:12:00.259Z,-13.80
2019-01-20T07:15:11.363Z,-13.70
2019-01-20T07:18:18.070Z,-13.75
2019-01-20T07:21:24.523Z,-13.74
2019-01-20T07:24:30.855Z,-13.71
2019-01-20T07:27:37.430Z,-13.64
2019-01-20T07:30:44.175Z,-13.58
2019-01-20T07:33:50.386Z,-13.60
2019-01-20T07:36:57.024Z,-13.59
2019-01-20T07:40:04.051Z,-13.53
2019-01-20T07:43:16.737Z,-13.53
2019-01-20T07:46:19.343Z,-13.49
2019-01-20T07:49:25.725Z,-13.50
2019-01-20T07:52:32.407Z,-13.52
2019-01-20T07:55:39.031Z,-13.50
2019-01-20T07:58:45.868Z,-13.44
2019-01-20T08:01:52.890Z,-13.35
2019-01-20T08:04:59.866Z,-13.31
2019-01-20T08:08:06.285Z,-13.29
2019-01-20T08:11:12.850Z,-13.17
2019-01-20T08:14:19.087Z,-13.10
2019-01-20T08:17:25.861Z,-13.03
2019-01-20T08:20:32.510Z,-12.99
2019-01-20T08:23:39.501Z,-12.94
2019-01-20T08:26:49.954Z,-12.86
2019-01-20T08:29:56.507Z,-12.83
2019-01-20T08:33:02.990Z,-12.72
2019-01-20T08:36:09.187Z,-12.53
2019-01-20T08:39:15.918Z,-12.59
2019-01-20T08:42:22.490Z,-12.59
2019-01-20T08:46:10.072Z,-12.52
2019-01-20T08:49:16.963Z,-12.43
2019-01-20T08:52:26.880Z,-12.47
2019-01-20T08:55:33.262Z,-12.38
2019-01-20T08:58:42.019Z,-12.29
2019-01-20T09:01:49.474Z,-12.13
2019-01-20T09:04:56.131Z,-12.07
2019-01-20T09:08:02.613Z,-11.89
2019-01-20T09:11:09.131Z,-11.46
2019-01-20T09:14:17.210Z,-10.97
2019-01-20T09:17:24.008Z,-10.81
2019-01-20T09:20:30.665Z,-10.63
2019-01-20T09:23:37.291Z,-10.15
2019-01-20T09:26:44.044Z,-9.84
2019-01-20T09:29:50.382Z,-9.42
2019-01-20T09:32:57.413Z,-9.24
2019-01-20T09:36:03.985Z,-8.95
2019-01-20T09:39:15.364Z,-8.90
2019-01-20T09:42:21.708Z,-8.90
2019-01-20T09:45:31.094Z,-8.56
2019-01-20T09:48:38.285Z,-8.32
2019-01-20T09:51:48.175Z,-8.10
2019-01-20T09:54:57.236Z,-7.80
2019-01-20T09:58:03.767Z,-7.58
2019-01-20T10:01:10.456Z,-7.54
2019-01-20T10:04:16.922Z,-7.16
2019-01-20T10:07:23.491Z,-7.02
2019-01-20T10:10:30.293Z,-6.83
2019-01-20T10:13:37.600Z,-6.61
2019-01-20T10:16:44.384Z,-6.00
2019-01-20T10:19:51.659Z,-5.67
2019-01-20T10:22:58.968Z,-5.41
2019-01-20T10:26:05.685Z,-5.35
2019-01-20T10:29:12.996Z,-4.98
2019-01-20T10:32:19.758Z,-4.83
2019-01-20T10:35:37.224Z,-4.55
2019-01-20T10:38:44.365Z,-4.32
2019-01-20T10:41:51.352Z,-4.14
2019-01-20T10:44:58.571Z,-4.00
2019-01-20T10:48:05.897Z,-4.05
2019-01-20T10:51:13.167Z,-4.11
2019-01-20T10:54:20.344Z,-3.79
2019-01-20T10:57:27.700Z,-3.69
2019-01-20T11:00:40.032Z,-3.50
2019-01-20T11:03:46.973Z,-3.67
2019-01-20T11:06:54.325Z,-3.43
2019-01-20T11:10:01.283Z,-3.17
2019-01-20T11:13:13.995Z,-3.10
2019-01-20T11:16:21.938Z,-2.93
2019-01-20T11:19:28.500Z,-3.04
2019-01-20T11:22:34.765Z,-2.97
2019-01-20T11:25:43.747Z,-2.59
2019-01-20T11:28:50.595Z,-2.59
2019-01-20T11:31:57.746Z,-2.37
2019-01-20T11:35:05.237Z,-2.38
2019-01-20T11:38:11.712Z,-2.32
2019-01-20T11:41:19.952Z,-2.24
2019-01-20T11:44:26.954Z,-2.07
2019-01-20T11:47:33.845Z,-1.94
2019-01-20T11:50:40.539Z,-1.91
2019-01-20T11:53:46.933Z,-1.84
2019-01-20T11:56:54.244Z,-1.94
2019-01-20T12:00:01.350Z,-1.93
2019-01-20T12:03:09.221Z,-1.84
2019-01-20T12:06:16.949Z,-1.79
2019-01-20T12:09:23.799Z,-1.89
2019-01-20T12:12:31.138Z,-1.79
2019-01-20T12:15:38.086Z,-1.91
2019-01-20T12:18:44.788Z,-1.81
2019-01-20T12:21:51.962Z,-1.99
2019-01-20T12:24:59.274Z,-1.81
2019-01-20T12:28:06.263Z,-1.90
2019-01-20T12:31:13.866Z,-2.01
2019-01-20T12:34:20.444Z,-2.19
2019-01-20T12:37:27.201Z,-2.15
2019-01-20T12:40:40.251Z,-2.04
2019-01-20T12:43:47.050Z,-1.90
2019-01-20T12:46:54.101Z,-1.98
2019-01-20T12:50:01.014Z,-2.31
2019-01-20T12:53:08.070Z,-1.92
2019-01-20T12:56:14.710Z,-2.05
2019-01-20T12:59:21.454Z,-1.95
2019-01-20T13:02:28.482Z,-1.89
2019-01-20T13:05:35.310Z,-2.03
2019-01-20T13:08:41.844Z,-1.99
2019-01-20T13:11:49.062Z,-2.07
2019-01-20T13:14:55.768Z,-2.07
2019-01-20T13:18:03.016Z,-2.12
2019-01-20T13:21:11.302Z,-2.03
2019-01-20T13:24:17.963Z,-2.25
2019-01-20T13:27:25.058Z,-2.24
2019-01-20T13:30:31.822Z,-2.25
2019-01-20T13:33:40.197Z,-2.40
2019-01-20T13:36:47.020Z,-2.27
2019-01-20T13:39:55.574Z,-2.20
2019-01-20T13:43:03.711Z,-2.22
2019-01-20T13:46:11.093Z,-2.24
2019-01-20T13:49:18.982Z,-2.25
2019-01-20T13:52:26.044Z,-2.21
2019-01-20T13:55:33.891Z,-2.44
2019-01-20T13:58:41.200Z,-2.40
2019-01-20T14:01:49.487Z,-2.30
2019-01-20T14:04:56.458Z,-2.29
2019-01-20T14:08:03.352Z,-2.34
2019-01-20T14:11:10.576Z,-2.46
2019-01-20T14:14:19.017Z,-2.42
2019-01-20T14:17:25.727Z,-2.50
2019-01-20T14:20:33.144Z,-2.56
2019-01-20T14:23:44.216Z,-2.50
2019-01-20T14:26:51.471Z,-2.55
2019-01-20T14:29:59.457Z,-2.61
2019-01-20T14:33:07.611Z,-2.68
2019-01-20T14:36:14.882Z,-2.69
2019-01-20T14:39:22.287Z,-2.88
2019-01-20T14:42:30.969Z,-3.00
2019-01-20T14:45:38.437Z,-2.97
2019-01-20T14:48:45.559Z,-3.00
2019-01-20T14:51:56.701Z,-3.02
2019-01-20T14:55:06.138Z,-3.16
2019-01-20T14:58:14.077Z,-3.26
2019-01-20T15:01:21.298Z,-3.27
2019-01-20T15:04:28.468Z,-3.32
2019-01-20T15:07:35.856Z,-3.42
2019-01-20T15:10:43.908Z,-3.39
2019-01-20T15:13:51.081Z,-3.43
2019-01-20T15:16:57.783Z,-3.62
2019-01-20T15:20:04.675Z,-3.76
2019-01-20T15:23:11.607Z,-3.78
2019-01-20T15:26:18.484Z,-3.86
2019-01-20T15:29:25.026Z,-3.94
2019-01-20T15:32:31.746Z,-4.17
2019-01-20T15:35:38.793Z,-4.27
2019-01-20T15:38:45.928Z,-4.58
2019-01-20T15:41:53.110Z,-4.82
2019-01-20T15:45:00.185Z,-4.97
2019-01-20T15:48:07.184Z,-5.27
2019-01-20T15:51:14.557Z,-5.31
2019-01-20T15:54:21.478Z,-5.47
2019-01-20T15:57:28.724Z,-5.59
2019-01-20T16:00:35.609Z,-5.77
2019-01-20T16:03:42.156Z,-5.85
2019-01-20T16:06:49.642Z,-6.00
2019-01-20T16:09:56.642Z,-6.14
2019-01-20T16:13:04.369Z,-6.26
2019-01-20T16:16:11.345Z,-6.38
2019-01-20T16:19:18.217Z,-6.40
2019-01-20T16:22:24.709Z,-6.56
2019-01-20T16:25:34.888Z,-6.73
2019-01-20T16:28:42.571Z,-6.86
2019-01-20T16:31:49.603Z,-6.99
2019-01-20T16:34:56.881Z,-7.17
2019-01-20T16:38:06.277Z,-7.29
2019-01-20T16:41:13.553Z,-7.43
2019-01-20T16:44:20.463Z,-7.57
2019-01-20T16:47:27.784Z,-7.73
2019-01-20T16:50:35.115Z,-7.90
2019-01-20T16:53:41.852Z,-8.01
2019-01-20T16:56:49.455Z,-8.06
2019-01-20T16:59:56.342Z,-8.19
2019-01-20T17:03:03.130Z,-8.39
2019-01-20T17:06:10.413Z,-8.48
2019-01-20T17:09:17.104Z,-8.52
2019-01-20T17:12:25.388Z,-8.68
2019-01-20T17:15:39.473Z,-8.77
2019-01-20T17:18:44.008Z,-8.88
2019-01-20T17:21:51.149Z,-8.94
2019-01-20T17:24:58.586Z,-8.86
2019-01-20T17:28:05.790Z,-8.98
2019-01-20T17:31:12.888Z,-9.02
2019-01-20T17:34:20.156Z,-9.25
2019-01-20T17:37:26.739Z,-9.37
2019-01-20T17:40:33.838Z,-9.43
2019-01-20T17:43:42.022Z,-9.32
2019-01-20T17:46:49.083Z,-9.34
2019-01-20T17:49:55.896Z,-9.22
2019-01-20T17:53:06.838Z,-9.28
2019-01-20T17:56:14.698Z,-9.33
2019-01-20T17:59:22.458Z,-9.13
2019-01-20T18:02:29.275Z,-9.09
2019-01-20T18:05:36.960Z,-8.89
2019-01-20T18:08:43.655Z,-8.78
2019-01-20T18:11:51.049Z,-8.84
2019-01-20T18:14:58.265Z,-8.85
2019-01-20T18:18:05.721Z,-8.76
2019-01-20T18:21:12.310Z,-8.61
2019-01-20T18:24:19.202Z,-8.63
2019-01-20T18:27:25.695Z,-8.66
2019-01-20T18:30:33.766Z,-8.56
2019-01-20T18:33:40.990Z,-8.54
2019-01-20T18:36:47.682Z,-8.62
2019-01-20T18:39:54.583Z,-8.59
2019-01-20T18:43:01.183Z,-8.60
2019-01-20T18:46:07.905Z,-8.64
2019-01-20T18:49:14.506Z,-8.65
2019-01-20T18:52:21.130Z,-8.72
2019-01-20T18:55:27.829Z,-8.78
2019-01-20T18:58:34.447Z,-8.86
2019-01-20T19:01:41.613Z,-8.83
2019-01-20T19:04:48.117Z,-8.94
2019-01-20T19:07:55.614Z,-9.09
2019-01-20T19:11:02.291Z,-9.14
2019-01-20T19:14:09.477Z,-9.12
2019-01-20T19:17:16.338Z,-9.33
2019-01-20T19:20:24.225Z,-9.34
2019-01-20T19:23:32.444Z,-9.31
2019-01-20T19:26:39.709Z,-9.09
2019-01-20T19:29:46.344Z,-9.11
2019-01-20T19:32:52.849Z,-9.02
2019-01-20T19:36:00.142Z,-8.85
2019-01-20T19:39:08.618Z,-8.63
2019-01-20T19:42:15.261Z,-8.47
2019-01-20T19:45:22.124Z,-8.41
2019-01-20T19:48:28.966Z,-8.27
2019-01-20T19:51:36.519Z,-8.18
2019-01-20T19:54:44.060Z,-8.15
2019-01-20T19:57:50.593Z,-8.03
2019-01-20T20:00:57.616Z,-7.89
2019-01-20T20:04:04.529Z,-7.76
2019-01-20T20:07:11.605Z,-7.64
2019-01-20T20:10:20.423Z,-7.64
2019-01-20T20:13:28.593Z,-7.57
2019-01-20T20:16:36.345Z,-7.53
2019-01-20T20:19:43.411Z,-7.49
2019-01-20T20:22:50.494Z,-7.38
2019-01-20T20:25:57.340Z,-7.40
2019-01-20T20:29:05.005Z,-7.26
2019-01-20T20:32:12.251Z,-7.21
2019-01-20T20:35:18.674Z,-7.17
2019-01-20T20:38:25.227Z,-7.07
2019-01-20T20:41:32.226Z,-7.10
2019-01-20T20:44:39.385Z,-7.08
2019-01-20T20:47:46.004Z,-6.88
2019-01-20T20:50:52.781Z,-6.83
2019-01-20T20:53:59.760Z,-6.81
2019-01-20T20:57:06.708Z,-6.76
2019-01-20T21:00:23.450Z,-6.80
2019-01-20T21:03:33.164Z,-6.76
2019-01-20T21:06:42.171Z,-6.63
2019-01-20T21:09:56.301Z,-6.63
2019-01-20T21:12:59.049Z,-6.62
2019-01-20T21:16:05.965Z,-6.59
2019-01-20T21:19:13.553Z,-6.48
2019-01-20T21:22:20.413Z,-6.40
2019-01-20T21:25:27.318Z,-6.34
2019-01-20T21:28:34.368Z,-6.30
2019-01-20T21:31:41.383Z,-6.16
2019-01-20T21:34:47.712Z,-6.12
2019-01-20T21:37:54.380Z,-6.10
2019-01-20T21:41:01.233Z,-6.05
2019-01-20T21:44:08.233Z,-5.98
2019-01-20T21:47:15.300Z,-5.94
2019-01-20T21:50:25.021Z,-5.88
2019-01-20T21:53:32.113Z,-5.81
2019-01-20T21:56:39.054Z,-5.51
2019-01-20T21:59:45.892Z,-5.33
2019-01-20T22:02:52.919Z,-5.33
2019-01-20T22:05:59.851Z,-5.33
2019-01-20T22:09:09.335Z,-5.36
2019-01-20T22:12:16.660Z,-5.36
2019-01-20T22:15:23.710Z,-5.24
2019-01-20T22:18:30.319Z,-5.20
2019-01-20T22:21:38.188Z,-4.89
2019-01-20T22:24:45.160Z,-4.98
2019-01-20T22:27:52.108Z,-4.93
2019-01-20T22:30:58.578Z,-4.74
2019-01-20T22:34:05.109Z,-4.77
2019-01-20T22:37:11.349Z,-4.91
2019-01-20T22:40:18.245Z,-4.92
2019-01-20T22:43:24.572Z,-4.88
2019-01-20T22:46:31.037Z,-4.85
2019-01-20T22:49:38.014Z,-4.92
2019-01-20T22:52:44.355Z,-4.87
2019-01-20T22:55:51.443Z,-4.84
2019-01-20T22:58:58.074Z,-4.79
2019-01-20T23:02:04.953Z,-4.85
2019-01-20T23:05:11.569Z,-4.83
2019-01-20T23:08:20.859Z,-4.92
2019-01-20T23:11:27.717Z,-4.88
2019-01-20T23:14:36.451Z,-4.81
2019-01-20T23:17:43.041Z,-4.86
2019-01-20T23:20:49.547Z,-4.83
2019-01-20T23:23:56.744Z,-4.89
2019-01-20T23:27:03.816Z,-4.88
2019-01-20T23:30:11.665Z,-4.84
2019-01-20T23:33:18.366Z,-4.90
2019-01-20T23:36:25.010Z,-4.91
2019-01-20T23:39:32.033Z,-4.92
2019-01-20T23:42:38.755Z,-4.86
2019-01-20T23:45:45.542Z,-4.84
2019-01-20T23:48:52.751Z,-4.76
2019-01-20T23:52:00.888Z,-4.79
2019-01-20T23:55:08.697Z,-4.84
2019-01-20T23:58:15.268Z,-4.88
